METAR stanice u blizini

 

LYBE - Beograd / Surčin, Srbija
Ažurirano: 25/06/2018 00:00
Vedro
Vedro
 Pravac vetra Z
Vetar: Z 6 km/h
Temperatura: 14°C
Tačka rose: 11°C
Vlažnost: 82%
Pritisak: 1018 hPa
Pregled: Vedro
Vidljivost: greater than 10 km
2018/06/24 22:00 LYBE 242200Z 26003KT CAVOK 14/11 Q1018 NOSIG
LYBT - Beograd / Batajnica, Srbija
Ažurirano: 25/06/2018 00:00
Vedro
Vedro
 Pravac vetra JI
Vetar: JI 4 km/h
Temperatura: 12°C
Tačka rose: 10°C
Vlažnost: 88%
Pritisak: 1018 hPa
Pregled: Vedro
Vidljivost: greater than 10 km
2018/06/24 22:00 LYBT 242200Z 13002KT CAVOK 12/10 Q1018 NOSIG
LYVR - Vršac, Srbija
Ažurirano: 25/06/2018 00:00
Vedro
Vedro
 Pravac vetra ISI
Vetar: ISI 4 km/h
Temperatura: 11°C
Tačka rose: 10°C
Vlažnost: 94%
Pritisak: 1018 hPa
Pregled: Vedro
Vidljivost: greater than 10 km
2018/06/24 22:00 LYVR 242200Z 06002KT CAVOK 11/10 Q1018 NOSIG
 
LYKV - Lađevci, Srbija
Ažurirano: 25/06/2018 00:00
Vedro
Vedro
 Pravac vetra varies
Vetar: varies 4 km/h
Temperatura: 12°C
Tačka rose: 9°C
Vlažnost: 82%
Pritisak: 1018 hPa
Pregled: Vedro
Vidljivost: greater than 10 km
2018/06/24 22:00 LYKV 242200Z VRB02KT CAVOK 12/09 Q1018 NOSIG
LYNI - Niš, Srbija
Ažurirano: 25/06/2018 00:00
Vedro
Vedro
 Pravac vetra ISI
Vetar: ISI 9 km/h
Temperatura: 13°C
Tačka rose: 8°C
Vlažnost: 72%
Pritisak: 1018 hPa
Pregled: Vedro
Vidljivost: greater than 10 km
2018/06/24 22:00 LYNI 242200Z 07005KT CAVOK 13/08 Q1018 NOSIG
BKPR - Priština, Srbija
Ažurirano: 25/06/2018 00:30
Few Clouds
Few Clouds
 Pravac vetra S
Vetar: S 7 km/h
Temperatura: 12°C
Tačka rose: 5°C
Vlažnost: 63%
Pritisak: 1018 hPa
Oblaci: Few Clouds
Vidljivost: 10 km
Cloud details: Few Clouds 1829 m
2018/06/24 22:30 BKPR 242230Z 35004KT 9999 FEW060 12/05 Q1018 NOSIG
 
LHPP - Pecs / Pogany, Hungary
Ažurirano: 24/06/2018 18:45
NOT Current
Mostly Cloudy
Mostly Cloudy
 Pravac vetra SZ
Vetar: SZ 11 km/h
Temperatura: 19°C
Tačka rose: 8°C
Vlažnost: 49%
Pritisak: 1019 hPa
Oblaci: Mostly Cloudy
Vidljivost: 10 km
Cloud details: Few Clouds 1402 m
Mostly Cloudy 2530 m
2018/06/24 16:45 LHPP 241645Z 32006KT 9999 FEW046 BKN083 19/08 Q1019
LHUD - Szeged, Hungary
Ažurirano: 24/06/2018 23:45
Vedro
Vedro
 Pravac vetra varies
Vetar: varies 0 km/h
Pregled: Vedro
Vidljivost: greater than 10 km
2018/06/24 21:45 LHUD 242145Z /////KT CAVOK Q
LRTR - Timisoara, Romania
Ažurirano: 25/06/2018 00:00
Vedro
Vedro
 Pravac vetra IJI
Vetar: IJI 4 km/h
Temperatura: 12°C
Tačka rose: 12°C
Vlažnost: 100%
Pritisak: 1017 hPa
Pregled: Vedro
Vidljivost: greater than 10 km
2018/06/24 22:00 LRTR 242200Z 12002KT CAVOK 12/12 Q1017
 
LRCV - Craiova, Romania
Ažurirano: 25/06/2018 00:00
Vedro
Vedro
 Pravac vetra JJZ
Vetar: JJZ 6 km/h
Temperatura: 13°C
Tačka rose: 8°C
Vlažnost: 72%
Pritisak: 1017 hPa
Pregled: Vedro
Vidljivost: greater than 10 km
2018/06/24 22:00 LRCV 242200Z 21003KT CAVOK 13/08 Q1017
LBSF - Sofia, Bulgaria
Ažurirano: 25/06/2018 00:00
Vedro
Vedro
 Pravac vetra calm
Vetar: Tišina
Temperatura: 13°C
Tačka rose: 8°C
Vlažnost: 72%
Pritisak: 1018 hPa
Pregled: Vedro
Vidljivost: greater than 10 km
2018/06/24 22:00 LBSF 242200Z 00000KT CAVOK 13/08 Q1018 NOSIG
LWSK - Skoplje, Makedonija
Ažurirano: 25/06/2018 00:30
Partly Cloudy
Partly Cloudy
 Pravac vetra calm
Vetar: Tišina
Temperatura: 17°C
Tačka rose: 8°C
Vlažnost: 56%
Pritisak: 1017 hPa
Oblaci: Partly Cloudy
Vidljivost: 10 km
Cloud details: Partly Cloudy 2530 m
2018/06/24 22:30 LWSK 242230Z 00000KT 9999 SCT083 17/08 Q1017 NOSIG
 
LYPG - Podgorica, Crna Gora
Ažurirano: 25/06/2018 00:00
Few Clouds
Few Clouds
 Pravac vetra S
Vetar: S 15 km/h
Temperatura: 20°C
Tačka rose: 6°C
Vlažnost: 40%
Pritisak: 1014 hPa
Oblaci: Few Clouds
Vidljivost: 10 km
Cloud details: Few Clouds 3048 m
2018/06/24 22:00 LYPG 242200Z 36008KT 290V040 9999 FEW100 20/06 Q1014 NOSIG
LQSA - Sarajevo, Bosna i Hercegovina
Ažurirano: 25/06/2018 00:00
Vedro
Vedro
 Pravac vetra varies
Vetar: varies 2 km/h
Temperatura: 10°C
Tačka rose: 8°C
Vlažnost: 88%
Pritisak: 1019 hPa
Pregled: Vedro
Vidljivost: greater than 10 km
2018/06/24 22:00 LQSA 242200Z VRB01KT CAVOK 10/08 Q1019
LDOS - Osijek, Hrvatksa
Ažurirano: 25/06/2018 00:00
Vedro
Vedro
 Pravac vetra ZSZ
Vetar: ZSZ 9 km/h
Temperatura: 13°C
Tačka rose: 12°C
Vlažnost: 94%
Pritisak: 1018 hPa
Pregled: Vedro
Vidljivost: greater than 10 km
2018/06/24 22:00 LDOS 242200Z 29005KT CAVOK 13/12 Q1018